sensor_id;sensor_type;location;lat;lon;timestamp;temperature;humidity
74153;DHT22;62505;46.070;14.492;2024-02-14T00:02:23;22.40;62.60
74153;DHT22;62505;46.070;14.492;2024-02-14T00:04:53;22.40;62.50
74153;DHT22;62505;46.070;14.492;2024-02-14T00:07:20;22.40;62.60
74153;DHT22;62505;46.070;14.492;2024-02-14T00:09:47;22.40;62.70
74153;DHT22;62505;46.070;14.492;2024-02-14T00:12:14;22.40;62.60
74153;DHT22;62505;46.070;14.492;2024-02-14T00:14:41;22.40;62.60
74153;DHT22;62505;46.070;14.492;2024-02-14T00:17:09;22.40;62.60
74153;DHT22;62505;46.070;14.492;2024-02-14T00:19:38;22.40;62.70
74153;DHT22;62505;46.070;14.492;2024-02-14T00:22:06;22.40;62.70
74153;DHT22;62505;46.070;14.492;2024-02-14T00:24:33;22.40;62.80
74153;DHT22;62505;46.070;14.492;2024-02-14T00:27:02;22.40;62.80
74153;DHT22;62505;46.070;14.492;2024-02-14T00:29:29;22.40;62.80
74153;DHT22;62505;46.070;14.492;2024-02-14T00:31:56;22.40;62.80
74153;DHT22;62505;46.070;14.492;2024-02-14T00:34:23;22.40;62.80
74153;DHT22;62505;46.070;14.492;2024-02-14T00:36:50;22.40;62.80
74153;DHT22;62505;46.070;14.492;2024-02-14T00:39:18;22.40;62.80
74153;DHT22;62505;46.070;14.492;2024-02-14T00:41:47;22.40;62.80
74153;DHT22;62505;46.070;14.492;2024-02-14T00:44:14;22.40;62.70
74153;DHT22;62505;46.070;14.492;2024-02-14T00:46:42;22.40;62.70
74153;DHT22;62505;46.070;14.492;2024-02-14T00:49:10;22.40;62.70
74153;DHT22;62505;46.070;14.492;2024-02-14T00:51:37;22.40;62.80
74153;DHT22;62505;46.070;14.492;2024-02-14T00:54:05;22.40;62.70
74153;DHT22;62505;46.070;14.492;2024-02-14T00:56:34;22.40;62.80
74153;DHT22;62505;46.070;14.492;2024-02-14T00:59:01;22.40;62.60
74153;DHT22;62505;46.070;14.492;2024-02-14T01:01:28;22.40;62.70
74153;DHT22;62505;46.070;14.492;2024-02-14T01:03:55;22.40;62.60
74153;DHT22;62505;46.070;14.492;2024-02-14T01:06:23;22.40;62.70
74153;DHT22;62505;46.070;14.492;2024-02-14T01:08:50;22.40;62.70
74153;DHT22;62505;46.070;14.492;2024-02-14T01:11:17;22.40;62.70
74153;DHT22;62505;46.070;14.492;2024-02-14T01:13:46;22.40;62.60
74153;DHT22;62505;46.070;14.492;2024-02-14T01:16:13;22.40;62.70
74153;DHT22;62505;46.070;14.492;2024-02-14T01:18:40;22.40;62.60
74153;DHT22;62505;46.070;14.492;2024-02-14T01:21:07;22.40;62.60
74153;DHT22;62505;46.070;14.492;2024-02-14T01:23:34;22.40;62.60
74153;DHT22;62505;46.070;14.492;2024-02-14T01:26:01;22.40;62.70
74153;DHT22;62505;46.070;14.492;2024-02-14T01:28:28;22.40;62.60
74153;DHT22;62505;46.070;14.492;2024-02-14T01:30:57;22.40;62.60
74153;DHT22;62505;46.070;14.492;2024-02-14T01:33:24;22.40;62.70
74153;DHT22;62505;46.070;14.492;2024-02-14T01:35:51;22.40;62.60
74153;DHT22;62505;46.070;14.492;2024-02-14T01:38:18;22.40;62.60
74153;DHT22;62505;46.070;14.492;2024-02-14T01:40:45;22.40;62.60
74153;DHT22;62505;46.070;14.492;2024-02-14T01:43:12;22.40;62.60
74153;DHT22;62505;46.070;14.492;2024-02-14T01:45:41;22.40;62.60
74153;DHT22;62505;46.070;14.492;2024-02-14T01:48:10;22.40;62.60
74153;DHT22;62505;46.070;14.492;2024-02-14T01:50:37;22.40;62.60
74153;DHT22;62505;46.070;14.492;2024-02-14T01:53:06;22.40;62.50
74153;DHT22;62505;46.070;14.492;2024-02-14T01:55:34;22.40;62.60
74153;DHT22;62505;46.070;14.492;2024-02-14T01:58:01;22.40;62.50
74153;DHT22;62505;46.070;14.492;2024-02-14T02:00:30;22.40;62.60
74153;DHT22;62505;46.070;14.492;2024-02-14T02:02:58;22.40;62.60
74153;DHT22;62505;46.070;14.492;2024-02-14T02:05:27;22.40;62.60
74153;DHT22;62505;46.070;14.492;2024-02-14T02:07:54;22.40;63.40
74153;DHT22;62505;46.070;14.492;2024-02-14T02:10:21;22.40;62.50
74153;DHT22;62505;46.070;14.492;2024-02-14T02:12:51;22.40;62.50
74153;DHT22;62505;46.070;14.492;2024-02-14T02:15:18;22.40;62.50
74153;DHT22;62505;46.070;14.492;2024-02-14T02:17:45;22.40;62.50
74153;DHT22;62505;46.070;14.492;2024-02-14T02:20:18;22.40;62.50
74153;DHT22;62505;46.070;14.492;2024-02-14T02:22:48;22.40;62.50
74153;DHT22;62505;46.070;14.492;2024-02-14T02:25:15;22.40;62.50
74153;DHT22;62505;46.070;14.492;2024-02-14T02:27:43;22.40;62.50
74153;DHT22;62505;46.070;14.492;2024-02-14T02:30:10;22.40;62.50
74153;DHT22;62505;46.070;14.492;2024-02-14T02:32:39;22.40;62.50
74153;DHT22;62505;46.070;14.492;2024-02-14T02:35:07;22.40;62.50
74153;DHT22;62505;46.070;14.492;2024-02-14T02:37:35;22.40;62.50
74153;DHT22;62505;46.070;14.492;2024-02-14T02:40:04;22.40;62.50
74153;DHT22;62505;46.070;14.492;2024-02-14T02:42:33;22.40;62.60
74153;DHT22;62505;46.070;14.492;2024-02-14T02:45:00;22.40;62.60
74153;DHT22;62505;46.070;14.492;2024-02-14T02:47:27;22.40;62.60
74153;DHT22;62505;46.070;14.492;2024-02-14T02:49:55;22.40;62.60
74153;DHT22;62505;46.070;14.492;2024-02-14T02:52:27;22.40;62.50
74153;DHT22;62505;46.070;14.492;2024-02-14T02:54:54;22.40;62.50
74153;DHT22;62505;46.070;14.492;2024-02-14T02:57:22;22.40;62.60
74153;DHT22;62505;46.070;14.492;2024-02-14T02:59:52;22.40;62.50
74153;DHT22;62505;46.070;14.492;2024-02-14T03:02:20;22.40;62.50
74153;DHT22;62505;46.070;14.492;2024-02-14T03:04:47;22.40;62.50
74153;DHT22;62505;46.070;14.492;2024-02-14T03:07:14;22.40;62.50
74153;DHT22;62505;46.070;14.492;2024-02-14T03:09:41;22.30;62.40
74153;DHT22;62505;46.070;14.492;2024-02-14T03:12:10;22.40;62.50
74153;DHT22;62505;46.070;14.492;2024-02-14T03:14:38;22.40;62.50
74153;DHT22;62505;46.070;14.492;2024-02-14T03:17:06;22.40;62.40
74153;DHT22;62505;46.070;14.492;2024-02-14T03:19:36;22.40;62.40
74153;DHT22;62505;46.070;14.492;2024-02-14T03:22:05;22.40;62.50
74153;DHT22;62505;46.070;14.492;2024-02-14T03:24:34;22.40;62.50
74153;DHT22;62505;46.070;14.492;2024-02-14T03:27:03;22.30;63.10
74153;DHT22;62505;46.070;14.492;2024-02-14T03:29:31;22.30;63.10
74153;DHT22;62505;46.070;14.492;2024-02-14T03:32:02;22.40;62.40
74153;DHT22;62505;46.070;14.492;2024-02-14T03:34:30;22.30;62.30
74153;DHT22;62505;46.070;14.492;2024-02-14T03:36:59;22.40;62.40
74153;DHT22;62505;46.070;14.492;2024-02-14T03:39:28;22.40;62.50
74153;DHT22;62505;46.070;14.492;2024-02-14T03:41:56;22.40;62.40
74153;DHT22;62505;46.070;14.492;2024-02-14T03:44:24;22.40;62.50
74153;DHT22;62505;46.070;14.492;2024-02-14T03:46:51;22.40;62.40
74153;DHT22;62505;46.070;14.492;2024-02-14T03:49:20;22.30;62.30
74153;DHT22;62505;46.070;14.492;2024-02-14T03:51:47;22.40;62.40
74153;DHT22;62505;46.070;14.492;2024-02-14T03:54:15;22.40;62.40
74153;DHT22;62505;46.070;14.492;2024-02-14T03:56:42;22.30;62.30
74153;DHT22;62505;46.070;14.492;2024-02-14T03:59:09;22.30;62.30
74153;DHT22;62505;46.070;14.492;2024-02-14T04:01:35;22.30;62.30
74153;DHT22;62505;46.070;14.492;2024-02-14T04:04:03;22.40;62.50
74153;DHT22;62505;46.070;14.492;2024-02-14T04:06:31;22.40;62.30
74153;DHT22;62505;46.070;14.492;2024-02-14T04:08:58;22.40;62.40
74153;DHT22;62505;46.070;14.492;2024-02-14T04:11:25;22.30;62.30
74153;DHT22;62505;46.070;14.492;2024-02-14T04:13:52;22.30;62.30
74153;DHT22;62505;46.070;14.492;2024-02-14T04:16:20;22.30;62.30
74153;DHT22;62505;46.070;14.492;2024-02-14T04:18:47;22.30;62.30
74153;DHT22;62505;46.070;14.492;2024-02-14T04:21:14;22.30;62.20
74153;DHT22;62505;46.070;14.492;2024-02-14T04:23:43;22.40;62.40
74153;DHT22;62505;46.070;14.492;2024-02-14T04:26:10;22.40;62.40
74153;DHT22;62505;46.070;14.492;2024-02-14T04:28:44;22.30;62.20
74153;DHT22;62505;46.070;14.492;2024-02-14T04:31:11;22.30;62.30
74153;DHT22;62505;46.070;14.492;2024-02-14T04:33:38;22.30;62.20
74153;DHT22;62505;46.070;14.492;2024-02-14T04:36:06;22.30;62.20
74153;DHT22;62505;46.070;14.492;2024-02-14T04:38:33;22.30;62.30
74153;DHT22;62505;46.070;14.492;2024-02-14T04:41:01;22.30;62.20
74153;DHT22;62505;46.070;14.492;2024-02-14T04:43:28;22.40;62.20
74153;DHT22;62505;46.070;14.492;2024-02-14T04:45:55;22.40;62.10
74153;DHT22;62505;46.070;14.492;2024-02-14T04:48:22;22.30;62.00
74153;DHT22;62505;46.070;14.492;2024-02-14T04:50:51;22.40;61.90
74153;DHT22;62505;46.070;14.492;2024-02-14T04:53:18;22.40;62.00
74153;DHT22;62505;46.070;14.492;2024-02-14T04:55:46;22.40;62.00
74153;DHT22;62505;46.070;14.492;2024-02-14T04:58:14;22.40;62.00
74153;DHT22;62505;46.070;14.492;2024-02-14T05:00:41;22.40;61.90
74153;DHT22;62505;46.070;14.492;2024-02-14T05:03:08;22.40;62.00
74153;DHT22;62505;46.070;14.492;2024-02-14T05:05:36;22.40;61.90
74153;DHT22;62505;46.070;14.492;2024-02-14T05:08:04;22.40;62.70
74153;DHT22;62505;46.070;14.492;2024-02-14T05:10:31;22.40;61.60
74153;DHT22;62505;46.070;14.492;2024-02-14T05:12:58;22.40;61.90
74153;DHT22;62505;46.070;14.492;2024-02-14T05:15:26;22.40;61.90
74153;DHT22;62505;46.070;14.492;2024-02-14T05:17:54;22.40;62.00
74153;DHT22;62505;46.070;14.492;2024-02-14T05:20:22;22.40;62.00
74153;DHT22;62505;46.070;14.492;2024-02-14T05:22:49;22.40;62.10
74153;DHT22;62505;46.070;14.492;2024-02-14T05:25:15;22.40;62.10
74153;DHT22;62505;46.070;14.492;2024-02-14T05:27:44;22.40;62.10
74153;DHT22;62505;46.070;14.492;2024-02-14T05:30:12;22.40;62.20
74153;DHT22;62505;46.070;14.492;2024-02-14T05:32:41;22.40;62.30
74153;DHT22;62505;46.070;14.492;2024-02-14T05:35:08;22.40;62.30
74153;DHT22;62505;46.070;14.492;2024-02-14T05:37:35;22.40;62.30
74153;DHT22;62505;46.070;14.492;2024-02-14T05:40:04;22.40;62.30
74153;DHT22;62505;46.070;14.492;2024-02-14T05:42:33;22.40;62.30
74153;DHT22;62505;46.070;14.492;2024-02-14T05:45:01;22.40;62.30
74153;DHT22;62505;46.070;14.492;2024-02-14T05:47:29;22.40;62.40
74153;DHT22;62505;46.070;14.492;2024-02-14T05:49:58;22.40;62.40
74153;DHT22;62505;46.070;14.492;2024-02-14T05:52:25;22.40;62.40
74153;DHT22;62505;46.070;14.492;2024-02-14T05:54:52;22.40;62.40
74153;DHT22;62505;46.070;14.492;2024-02-14T05:57:19;22.40;62.40
74153;DHT22;62505;46.070;14.492;2024-02-14T05:59:46;22.40;62.40
74153;DHT22;62505;46.070;14.492;2024-02-14T06:02:13;22.40;62.40
74153;DHT22;62505;46.070;14.492;2024-02-14T06:04:40;22.40;62.50
74153;DHT22;62505;46.070;14.492;2024-02-14T06:07:09;22.40;62.50
74153;DHT22;62505;46.070;14.492;2024-02-14T06:09:37;22.40;62.50
74153;DHT22;62505;46.070;14.492;2024-02-14T06:12:05;22.40;62.50
74153;DHT22;62505;46.070;14.492;2024-02-14T06:14:32;22.40;62.50
74153;DHT22;62505;46.070;14.492;2024-02-14T06:17:01;22.40;62.60
74153;DHT22;62505;46.070;14.492;2024-02-14T06:19:28;22.40;62.60
74153;DHT22;62505;46.070;14.492;2024-02-14T06:21:56;22.40;62.50
74153;DHT22;62505;46.070;14.492;2024-02-14T06:24:24;22.40;62.60
74153;DHT22;62505;46.070;14.492;2024-02-14T06:26:51;22.40;62.70
74153;DHT22;62505;46.070;14.492;2024-02-14T06:29:18;22.40;63.00
74153;DHT22;62505;46.070;14.492;2024-02-14T06:31:46;22.40;63.20
74153;DHT22;62505;46.070;14.492;2024-02-14T06:34:13;22.40;62.90
74153;DHT22;62505;46.070;14.492;2024-02-14T06:36:40;22.40;63.10
74153;DHT22;62505;46.070;14.492;2024-02-14T06:39:07;22.40;63.20
74153;DHT22;62505;46.070;14.492;2024-02-14T06:41:36;22.40;63.40
74153;DHT22;62505;46.070;14.492;2024-02-14T06:44:03;22.40;63.40
74153;DHT22;62505;46.070;14.492;2024-02-14T06:46:30;22.40;63.40
74153;DHT22;62505;46.070;14.492;2024-02-14T06:48:57;22.40;63.40
74153;DHT22;62505;46.070;14.492;2024-02-14T06:51:24;22.40;63.20
74153;DHT22;62505;46.070;14.492;2024-02-14T06:53:51;22.40;63.20
74153;DHT22;62505;46.070;14.492;2024-02-14T06:56:18;22.40;63.10
74153;DHT22;62505;46.070;14.492;2024-02-14T06:58:47;22.40;63.40
74153;DHT22;62505;46.070;14.492;2024-02-14T07:01:18;22.40;63.20
74153;DHT22;62505;46.070;14.492;2024-02-14T07:03:47;22.40;64.10
74153;DHT22;62505;46.070;14.492;2024-02-14T07:06:14;22.40;63.20
74153;DHT22;62505;46.070;14.492;2024-02-14T07:08:43;22.40;63.10
74153;DHT22;62505;46.070;14.492;2024-02-14T07:11:10;22.40;63.10
74153;DHT22;62505;46.070;14.492;2024-02-14T07:13:37;22.40;63.10
74153;DHT22;62505;46.070;14.492;2024-02-14T07:16:06;22.40;63.10
74153;DHT22;62505;46.070;14.492;2024-02-14T07:18:34;22.40;63.00
74153;DHT22;62505;46.070;14.492;2024-02-14T07:21:01;22.40;63.10
74153;DHT22;62505;46.070;14.492;2024-02-14T07:23:31;22.40;63.10
74153;DHT22;62505;46.070;14.492;2024-02-14T07:25:58;22.40;63.10
74153;DHT22;62505;46.070;14.492;2024-02-14T07:28:26;22.40;63.00
74153;DHT22;62505;46.070;14.492;2024-02-14T07:30:53;22.40;63.00
74153;DHT22;62505;46.070;14.492;2024-02-14T07:33:21;22.50;63.00
74153;DHT22;62505;46.070;14.492;2024-02-14T07:35:49;22.50;63.20
74153;DHT22;62505;46.070;14.492;2024-02-14T07:38:16;22.40;63.00
74153;DHT22;62505;46.070;14.492;2024-02-14T07:40:43;22.50;63.10
74153;DHT22;62505;46.070;14.492;2024-02-14T07:43:10;22.50;63.00
74153;DHT22;62505;46.070;14.492;2024-02-14T07:45:37;22.50;63.00
74153;DHT22;62505;46.070;14.492;2024-02-14T07:48:05;22.50;63.00
74153;DHT22;62505;46.070;14.492;2024-02-14T07:50:34;22.50;63.20
74153;DHT22;62505;46.070;14.492;2024-02-14T07:53:02;22.50;63.10
74153;DHT22;62505;46.070;14.492;2024-02-14T07:55:29;22.50;63.20
74153;DHT22;62505;46.070;14.492;2024-02-14T07:57:56;22.50;63.80
74153;DHT22;62505;46.070;14.492;2024-02-14T08:00:25;22.50;63.20
74153;DHT22;62505;46.070;14.492;2024-02-14T08:02:52;22.40;63.10
74153;DHT22;62505;46.070;14.492;2024-02-14T08:05:19;22.50;63.00
74153;DHT22;62505;46.070;14.492;2024-02-14T08:07:48;22.50;63.20
74153;DHT22;62505;46.070;14.492;2024-02-14T08:10:15;22.50;63.20
74153;DHT22;62505;46.070;14.492;2024-02-14T08:12:42;22.50;63.30
74153;DHT22;62505;46.070;14.492;2024-02-14T08:15:09;22.50;63.50
74153;DHT22;62505;46.070;14.492;2024-02-14T08:17:36;22.50;63.50
74153;DHT22;62505;46.070;14.492;2024-02-14T08:20:04;22.50;63.40
74153;DHT22;62505;46.070;14.492;2024-02-14T08:22:31;22.50;63.40
74153;DHT22;62505;46.070;14.492;2024-02-14T08:25:00;22.50;63.70
74153;DHT22;62505;46.070;14.492;2024-02-14T08:27:27;22.50;63.60
74153;DHT22;62505;46.070;14.492;2024-02-14T08:29:54;22.50;63.40
74153;DHT22;62505;46.070;14.492;2024-02-14T08:32:21;22.50;63.60
74153;DHT22;62505;46.070;14.492;2024-02-14T08:34:48;22.60;63.60
74153;DHT22;62505;46.070;14.492;2024-02-14T08:37:16;22.50;60.30
74153;DHT22;62505;46.070;14.492;2024-02-14T08:39:43;22.40;51.80
74153;DHT22;62505;46.070;14.492;2024-02-14T08:42:12;22.20;48.40
74153;DHT22;62505;46.070;14.492;2024-02-14T08:44:38;22.10;50.50
74153;DHT22;62505;46.070;14.492;2024-02-14T08:47:06;22.10;52.80
74153;DHT22;62505;46.070;14.492;2024-02-14T08:49:34;22.20;53.10
74153;DHT22;62505;46.070;14.492;2024-02-14T08:52:01;22.40;52.40
74153;DHT22;62505;46.070;14.492;2024-02-14T08:54:29;22.60;52.20
74153;DHT22;62505;46.070;14.492;2024-02-14T08:56:58;22.70;52.30
74153;DHT22;62505;46.070;14.492;2024-02-14T08:59:26;22.90;52.40
74153;DHT22;62505;46.070;14.492;2024-02-14T09:01:53;23.00;52.70
74153;DHT22;62505;46.070;14.492;2024-02-14T09:04:20;23.00;52.90
74153;DHT22;62505;46.070;14.492;2024-02-14T09:06:47;23.10;53.30
74153;DHT22;62505;46.070;14.492;2024-02-14T09:09:14;23.10;53.50
74153;DHT22;62505;46.070;14.492;2024-02-14T09:11:41;23.10;53.80
74153;DHT22;62505;46.070;14.492;2024-02-14T09:14:08;23.20;54.10
74153;DHT22;62505;46.070;14.492;2024-02-14T09:16:37;23.20;54.30
74153;DHT22;62505;46.070;14.492;2024-02-14T09:19:04;23.20;54.60
74153;DHT22;62505;46.070;14.492;2024-02-14T09:21:33;23.20;54.80
74153;DHT22;62505;46.070;14.492;2024-02-14T09:24:01;23.20;55.00
74153;DHT22;62505;46.070;14.492;2024-02-14T09:26:28;23.20;55.20
74153;DHT22;62505;46.070;14.492;2024-02-14T09:28:55;23.20;55.40
74153;DHT22;62505;46.070;14.492;2024-02-14T09:31:22;23.20;55.80
74153;DHT22;62505;46.070;14.492;2024-02-14T09:33:51;23.20;56.10
74153;DHT22;62505;46.070;14.492;2024-02-14T09:36:22;23.10;56.30
74153;DHT22;62505;46.070;14.492;2024-02-14T09:38:50;23.10;56.60
74153;DHT22;62505;46.070;14.492;2024-02-14T09:41:22;23.10;56.70
74153;DHT22;62505;46.070;14.492;2024-02-14T09:43:49;23.10;57.00
74153;DHT22;62505;46.070;14.492;2024-02-14T09:46:17;23.00;57.20
74153;DHT22;62505;46.070;14.492;2024-02-14T09:48:45;23.00;57.50
74153;DHT22;62505;46.070;14.492;2024-02-14T09:51:14;23.00;57.60
74153;DHT22;62505;46.070;14.492;2024-02-14T09:53:41;22.90;57.50
74153;DHT22;62505;46.070;14.492;2024-02-14T09:56:10;22.90;57.30
74153;DHT22;62505;46.070;14.492;2024-02-14T09:58:40;22.90;57.20
74153;DHT22;62505;46.070;14.492;2024-02-14T10:01:07;22.90;57.40
74153;DHT22;62505;46.070;14.492;2024-02-14T10:03:35;22.80;57.50
74153;DHT22;62505;46.070;14.492;2024-02-14T10:06:02;22.90;57.60
74153;DHT22;62505;46.070;14.492;2024-02-14T10:08:31;22.80;57.80
74153;DHT22;62505;46.070;14.492;2024-02-14T10:10:58;22.80;58.00
74153;DHT22;62505;46.070;14.492;2024-02-14T10:13:27;22.80;58.10
74153;DHT22;62505;46.070;14.492;2024-02-14T10:15:55;22.80;58.20
74153;DHT22;62505;46.070;14.492;2024-02-14T10:18:22;22.80;58.20
74153;DHT22;62505;46.070;14.492;2024-02-14T10:20:54;22.80;58.50
74153;DHT22;62505;46.070;14.492;2024-02-14T10:23:21;22.80;58.50
74153;DHT22;62505;46.070;14.492;2024-02-14T10:25:50;22.80;59.30
74153;DHT22;62505;46.070;14.492;2024-02-14T10:28:20;22.80;58.70
74153;DHT22;62505;46.070;14.492;2024-02-14T10:30:47;22.80;58.60
74153;DHT22;62505;46.070;14.492;2024-02-14T10:33:15;22.70;58.60
74153;DHT22;62505;46.070;14.492;2024-02-14T10:35:43;22.70;58.70
74153;DHT22;62505;46.070;14.492;2024-02-14T10:38:11;22.70;58.70
74153;DHT22;62505;46.070;14.492;2024-02-14T10:40:39;22.80;58.50
74153;DHT22;62505;46.070;14.492;2024-02-14T10:43:07;22.80;58.30
74153;DHT22;62505;46.070;14.492;2024-02-14T10:45:35;22.90;58.00
74153;DHT22;62505;46.070;14.492;2024-02-14T10:48:04;23.00;57.80
74153;DHT22;62505;46.070;14.492;2024-02-14T10:50:34;23.00;57.60
74153;DHT22;62505;46.070;14.492;2024-02-14T10:53:04;23.10;57.50
74153;DHT22;62505;46.070;14.492;2024-02-14T10:55:33;23.10;57.40
74153;DHT22;62505;46.070;14.492;2024-02-14T10:58:01;23.10;57.40
74153;DHT22;62505;46.070;14.492;2024-02-14T11:00:30;23.10;57.60
74153;DHT22;62505;46.070;14.492;2024-02-14T11:02:58;23.10;57.70
74153;DHT22;62505;46.070;14.492;2024-02-14T11:05:27;23.10;57.80
74153;DHT22;62505;46.070;14.492;2024-02-14T11:07:54;23.10;58.00
74153;DHT22;62505;46.070;14.492;2024-02-14T11:10:22;23.10;58.10
74153;DHT22;62505;46.070;14.492;2024-02-14T11:12:49;23.10;58.20
74153;DHT22;62505;46.070;14.492;2024-02-14T11:15:19;23.00;58.40
74153;DHT22;62505;46.070;14.492;2024-02-14T11:17:48;23.00;58.50
74153;DHT22;62505;46.070;14.492;2024-02-14T11:20:18;23.00;58.30
74153;DHT22;62505;46.070;14.492;2024-02-14T11:22:56;23.00;58.20
74153;DHT22;62505;46.070;14.492;2024-02-14T11:25:30;22.90;58.80
74153;DHT22;62505;46.070;14.492;2024-02-14T11:27:57;22.90;58.20
74153;DHT22;62505;46.070;14.492;2024-02-14T11:30:33;22.90;58.20
74153;DHT22;62505;46.070;14.492;2024-02-14T11:33:13;22.90;58.20
74153;DHT22;62505;46.070;14.492;2024-02-14T11:35:41;22.90;58.50
74153;DHT22;62505;46.070;14.492;2024-02-14T11:38:08;22.90;58.30
74153;DHT22;62505;46.070;14.492;2024-02-14T11:40:36;22.80;58.20
74153;DHT22;62505;46.070;14.492;2024-02-14T11:43:04;22.80;58.30
74153;DHT22;62505;46.070;14.492;2024-02-14T11:45:31;22.90;58.40
74153;DHT22;62505;46.070;14.492;2024-02-14T11:47:58;22.90;58.50
74153;DHT22;62505;46.070;14.492;2024-02-14T11:50:26;22.90;58.60
74153;DHT22;62505;46.070;14.492;2024-02-14T11:52:54;22.90;58.70
74153;DHT22;62505;46.070;14.492;2024-02-14T11:55:27;22.90;58.90
74153;DHT22;62505;46.070;14.492;2024-02-14T11:57:55;22.90;59.10
74153;DHT22;62505;46.070;14.492;2024-02-14T12:00:22;22.90;59.10
74153;DHT22;62505;46.070;14.492;2024-02-14T12:02:50;22.90;59.30
74153;DHT22;62505;46.070;14.492;2024-02-14T12:05:17;22.90;59.40
74153;DHT22;62505;46.070;14.492;2024-02-14T12:07:46;22.80;59.40
74153;DHT22;62505;46.070;14.492;2024-02-14T12:10:13;22.90;59.40
74153;DHT22;62505;46.070;14.492;2024-02-14T12:12:44;22.80;59.40
74153;DHT22;62505;46.070;14.492;2024-02-14T12:15:11;22.80;59.40
74153;DHT22;62505;46.070;14.492;2024-02-14T12:17:41;22.80;59.50
74153;DHT22;62505;46.070;14.492;2024-02-14T12:20:09;22.80;59.40
74153;DHT22;62505;46.070;14.492;2024-02-14T12:22:37;22.80;59.50
74153;DHT22;62505;46.070;14.492;2024-02-14T12:25:07;22.80;59.60
74153;DHT22;62505;46.070;14.492;2024-02-14T12:27:37;22.70;59.50
74153;DHT22;62505;46.070;14.492;2024-02-14T12:30:05;22.70;59.30
74153;DHT22;62505;46.070;14.492;2024-02-14T12:32:33;22.70;59.30
74153;DHT22;62505;46.070;14.492;2024-02-14T12:35:00;22.70;59.10
74153;DHT22;62505;46.070;14.492;2024-02-14T12:37:27;22.70;59.10
74153;DHT22;62505;46.070;14.492;2024-02-14T12:39:54;22.70;59.00
74153;DHT22;62505;46.070;14.492;2024-02-14T12:42:23;22.70;59.00
74153;DHT22;62505;46.070;14.492;2024-02-14T12:44:54;22.70;58.90
74153;DHT22;62505;46.070;14.492;2024-02-14T12:47:22;22.70;59.00
74153;DHT22;62505;46.070;14.492;2024-02-14T12:49:51;22.70;58.90
74153;DHT22;62505;46.070;14.492;2024-02-14T12:52:18;22.70;58.90
74153;DHT22;62505;46.070;14.492;2024-02-14T12:54:45;22.70;58.90
74153;DHT22;62505;46.070;14.492;2024-02-14T12:57:13;22.70;59.00
74153;DHT22;62505;46.070;14.492;2024-02-14T12:59:41;22.70;59.70
74153;DHT22;62505;46.070;14.492;2024-02-14T13:02:08;22.70;59.20
74153;DHT22;62505;46.070;14.492;2024-02-14T13:04:36;22.70;59.20
74153;DHT22;62505;46.070;14.492;2024-02-14T13:07:04;22.70;59.10
74153;DHT22;62505;46.070;14.492;2024-02-14T13:09:31;22.70;59.20
74153;DHT22;62505;46.070;14.492;2024-02-14T13:11:58;22.70;59.30
74153;DHT22;62505;46.070;14.492;2024-02-14T13:14:25;22.70;59.30
74153;DHT22;62505;46.070;14.492;2024-02-14T13:16:53;22.70;59.10
74153;DHT22;62505;46.070;14.492;2024-02-14T13:19:20;22.70;58.50
74153;DHT22;62505;46.070;14.492;2024-02-14T13:21:47;22.70;58.30
74153;DHT22;62505;46.070;14.492;2024-02-14T13:24:14;22.70;57.90
74153;DHT22;62505;46.070;14.492;2024-02-14T13:26:41;22.70;57.50
74153;DHT22;62505;46.070;14.492;2024-02-14T13:29:08;22.70;56.70
74153;DHT22;62505;46.070;14.492;2024-02-14T13:31:35;22.70;56.50
74153;DHT22;62505;46.070;14.492;2024-02-14T13:34:03;22.70;56.30
74153;DHT22;62505;46.070;14.492;2024-02-14T13:36:30;22.70;56.20
74153;DHT22;62505;46.070;14.492;2024-02-14T13:38:58;22.80;56.40
74153;DHT22;62505;46.070;14.492;2024-02-14T13:41:25;22.80;56.70
74153;DHT22;62505;46.070;14.492;2024-02-14T13:43:52;22.80;56.90
74153;DHT22;62505;46.070;14.492;2024-02-14T13:46:19;22.80;57.30
74153;DHT22;62505;46.070;14.492;2024-02-14T13:48:46;22.80;57.40
74153;DHT22;62505;46.070;14.492;2024-02-14T13:51:15;22.80;57.90
74153;DHT22;62505;46.070;14.492;2024-02-14T13:53:42;22.90;58.60
74153;DHT22;62505;46.070;14.492;2024-02-14T13:56:09;22.90;59.40
74153;DHT22;62505;46.070;14.492;2024-02-14T13:58:36;22.90;59.20
74153;DHT22;62505;46.070;14.492;2024-02-14T14:01:04;22.90;60.50
74153;DHT22;62505;46.070;14.492;2024-02-14T14:03:32;22.90;60.60
74153;DHT22;62505;46.070;14.492;2024-02-14T14:06:02;22.90;61.20
74153;DHT22;62505;46.070;14.492;2024-02-14T14:08:33;22.90;61.10
74153;DHT22;62505;46.070;14.492;2024-02-14T14:11:01;22.90;61.20
74153;DHT22;62505;46.070;14.492;2024-02-14T14:13:28;22.90;61.20
74153;DHT22;62505;46.070;14.492;2024-02-14T14:15:56;22.90;61.30
74153;DHT22;62505;46.070;14.492;2024-02-14T14:18:23;22.90;61.20
74153;DHT22;62505;46.070;14.492;2024-02-14T14:20:50;22.90;61.20
74153;DHT22;62505;46.070;14.492;2024-02-14T14:23:17;22.90;60.00
74153;DHT22;62505;46.070;14.492;2024-02-14T14:25:46;22.90;59.40
74153;DHT22;62505;46.070;14.492;2024-02-14T14:28:13;22.80;58.10
74153;DHT22;62505;46.070;14.492;2024-02-14T14:30:41;22.80;58.60
74153;DHT22;62505;46.070;14.492;2024-02-14T14:33:08;22.80;57.60
74153;DHT22;62505;46.070;14.492;2024-02-14T14:35:35;22.90;58.00
74153;DHT22;62505;46.070;14.492;2024-02-14T14:38:02;22.80;57.90
74153;DHT22;62505;46.070;14.492;2024-02-14T14:40:29;22.80;58.00
74153;DHT22;62505;46.070;14.492;2024-02-14T14:42:57;22.80;58.10
74153;DHT22;62505;46.070;14.492;2024-02-14T14:45:25;22.80;58.50
74153;DHT22;62505;46.070;14.492;2024-02-14T14:47:53;22.80;58.40
74153;DHT22;62505;46.070;14.492;2024-02-14T14:50:21;22.80;58.50
74153;DHT22;62505;46.070;14.492;2024-02-14T14:52:50;22.80;58.40
74153;DHT22;62505;46.070;14.492;2024-02-14T14:55:18;22.80;58.50
74153;DHT22;62505;46.070;14.492;2024-02-14T14:57:45;22.80;58.50
74153;DHT22;62505;46.070;14.492;2024-02-14T15:00:14;22.70;58.40
74153;DHT22;62505;46.070;14.492;2024-02-14T15:02:41;22.70;58.00
74153;DHT22;62505;46.070;14.492;2024-02-14T15:05:09;22.70;57.70
74153;DHT22;62505;46.070;14.492;2024-02-14T15:07:36;22.70;56.50
74153;DHT22;62505;46.070;14.492;2024-02-14T15:10:03;22.70;56.30
74153;DHT22;62505;46.070;14.492;2024-02-14T15:12:31;22.70;56.10
74153;DHT22;62505;46.070;14.492;2024-02-14T15:15:00;22.60;56.10
74153;DHT22;62505;46.070;14.492;2024-02-14T15:17:29;22.70;56.20
74153;DHT22;62505;46.070;14.492;2024-02-14T15:19:56;22.70;56.30